Taihei Maru — JG5546 — position and weather

sailwx.info

Track history (hours):
 
Tides and Currents Weather Stations Pressure Air Temp Water Temp Dewpoint Dewpoint Depression Visibility Wind Speed Wind Dir Waves Ship Positions

Taihei Maru

Last reported at 2017-Oct-12 04:59 UTC. Time now 2017-Oct-20 05:25 UTC.
Position N 34°37' E 134°57'.
Warning: this ship's position is 8 days out of date.

Length 62 m; draft 4.3 m.

Type: Ship. MMSI: 431301369.

Date/timePositionNaut miles runAvg speedWind from/ knotsBaromVisibWave heightAir tempDewpointWater temp
2017-Oct-12 04:59N 34°37' E 134°57'713.3
2017-Oct-12 04:29N 34°36' E 135°06'612.1
2017-Oct-12 04:00N 34°36' E 135°12'612.5
2017-Oct-12 03:30N 34°34' E 135°20'5 0.9
2017-Oct-11 22:20N 34°32' E 135°25'1 2.5
2017-Oct-11 22:00N 34°33' E 135°25'2 1.1
2017-Oct-11 20:40N 34°34' E 135°23'0 0.3
2017-Oct-11 20:30N 34°34' E 135°23'510.1
2017-Oct-11 20:00N 34°34' E 135°17'612.4
2017-Oct-11 19:30N 34°34' E 135°10'713.3
2017-Oct-11 19:00N 34°36' E 135°02'  
2017-Oct-07 09:38N 34°59' E 139°24'211.3
2017-Oct-07 09:27N 35°00' E 139°26'511.1
2017-Oct-07 09:00N 35°03' E 139°32'611.4
2017-Oct-07 08:30N 35°05' E 139°38'611.4
2017-Oct-07 08:00N 35°08' E 139°43'611.7
2017-Oct-07 07:30N 35°14' E 139°46'611.1
2017-Oct-07 07:00N 35°19' E 139°43'5 9.6
2017-Oct-07 06:30N 35°24' E 139°44'0 0.6
2017-Oct-07 06:00N 35°24' E 139°44'0 0.0
2017-Oct-07 05:28N 35°24' E 139°44'0 0.0
2017-Oct-07 04:55N 35°24' E 139°44'0 0.0
2017-Oct-07 04:19N 35°24' E 139°44'0 0.0
2017-Oct-07 03:58N 35°24' E 139°44'0 0.0
2017-Oct-07 03:28N 35°24' E 139°44'0 0.0
2017-Oct-07 02:58N 35°24' E 139°44'0 0.0
2017-Oct-07 02:28N 35°24' E 139°44'0 0.0
2017-Oct-07 01:58N 35°24' E 139°44'0 0.0
2017-Oct-07 01:28N 35°24' E 139°44'0 0.1
2017-Oct-07 00:58N 35°24' E 139°44'0 0.1
2017-Oct-07 00:25N 35°24' E 139°44'0 0.1
2017-Oct-06 23:58N 35°24' E 139°44'0 0.1
2017-Oct-06 23:28N 35°24' E 139°44'0 0.1
2017-Oct-06 22:52N 35°24' E 139°44'0 0.1
2017-Oct-06 22:28N 35°24' E 139°44'0 0.0
2017-Oct-06 21:58N 35°24' E 139°44'0 0.1
2017-Oct-06 21:28N 35°24' E 139°44'0 0.0
2017-Oct-06 20:58N 35°24' E 139°44'0 0.0
2017-Oct-06 20:28N 35°24' E 139°44'0 0.0
2017-Oct-06 19:58N 35°24' E 139°44'0 0.1
2017-Oct-06 19:28N 35°24' E 139°44'0 0.1
2017-Oct-06 18:58N 35°24' E 139°44'0 0.1
2017-Oct-06 18:28N 35°24' E 139°44'0 0.0
2017-Oct-06 17:58N 35°24' E 139°44'0 0.0
2017-Oct-06 17:25N 35°24' E 139°44'0 0.0
2017-Oct-06 16:58N 35°24' E 139°44'0 0.0
2017-Oct-06 16:25N 35°24' E 139°44'0 0.0
2017-Oct-06 15:58N 35°24' E 139°44'0 1.0
2017-Oct-06 15:30N 35°24' E 139°44'611.2
2017-Oct-06 15:00N 35°29' E 139°47'2 4.8
2017-Oct-06 14:30N 35°31' E 139°46'0 0.0
2017-Oct-06 13:46N 35°31' E 139°46'0 0.0
2017-Oct-06 13:28N 35°31' E 139°46'0 0.1
2017-Oct-06 12:52N 35°31' E 139°46'0 0.1
2017-Oct-06 12:28N 35°31' E 139°46'0 0.0
2017-Oct-06 11:58N 35°31' E 139°46'0 0.0
2017-Oct-06 11:28N 35°31' E 139°46'0 0.0
2017-Oct-06 10:58N 35°31' E 139°46'0 0.0
2017-Oct-06 10:28N 35°31' E 139°46'0 0.1
2017-Oct-06 09:58N 35°31' E 139°46'0 0.1
2017-Oct-06 09:28N 35°31' E 139°46'0 0.0
2017-Oct-06 08:58N 35°31' E 139°46'0 0.0
2017-Oct-06 08:28N 35°31' E 139°46'0 0.0
2017-Oct-06 07:58N 35°31' E 139°46'0 0.0
2017-Oct-06 07:28N 35°31' E 139°46'0 0.0
2017-Oct-06 06:58N 35°31' E 139°46'0 0.0
2017-Oct-06 06:28N 35°31' E 139°46'0 0.1
2017-Oct-06 05:58N 35°31' E 139°46'0 0.1
2017-Oct-06 05:28N 35°31' E 139°46'0 0.0
2017-Oct-06 04:58N 35°31' E 139°46'0 0.0
2017-Oct-06 04:28N 35°31' E 139°46'0 0.0
2017-Oct-06 03:58N 35°31' E 139°46'0 0.0
2017-Oct-06 03:25N 35°31' E 139°46'0 0.1
2017-Oct-06 02:58N 35°31' E 139°46'0 0.1
2017-Oct-06 02:28N 35°31' E 139°46'0 0.0
2017-Oct-06 01:58N 35°31' E 139°46'0 0.0
2017-Oct-06 01:28N 35°31' E 139°46'0 0.0
2017-Oct-06 00:58N 35°31' E 139°46'0 0.0
2017-Oct-06 00:22N 35°31' E 139°46'0 0.0
2017-Oct-05 23:58N 35°31' E 139°46'2 3.1
2017-Oct-05 23:27N 35°30' E 139°48'2 5.2
2017-Oct-05 23:01N 35°31' E 139°50'0 0.1
2017-Oct-05 22:25N 35°31' E 139°50'0 0.0
2017-Oct-05 21:55N 35°31' E 139°50'0 0.0
2017-Oct-05 21:28N 35°31' E 139°50'0 0.0
2017-Oct-05 20:58N 35°31' E 139°50'0 0.0
2017-Oct-05 20:22N 35°31' E 139°50'0 0.0
2017-Oct-05 19:55N 35°31' E 139°50'0 0.0
2017-Oct-05 19:28N 35°31' E 139°50'0 0.0
2017-Oct-05 18:58N 35°31' E 139°50'0 0.0
2017-Oct-05 17:58N 35°31' E 139°50'0 0.0
2017-Oct-05 17:13N 35°31' E 139°50'0 0.1
2017-Oct-05 16:58N 35°31' E 139°50'0 0.0
2017-Oct-05 15:10N 35°31' E 139°50'0 0.0
2017-Oct-05 14:40N 35°31' E 139°50'0 0.0
2017-Oct-05 14:19N 35°31' E 139°50'0 0.0
2017-Oct-05 13:58N 35°31' E 139°50'0 0.0
2017-Oct-05 13:28N 35°31' E 139°50'0 0.0
2017-Oct-05 12:58N 35°31' E 139°50'0 0.0
2017-Oct-05 12:28N 35°31' E 139°50'0 0.0
2017-Oct-05 11:55N 35°31' E 139°50'0 0.0
2017-Oct-05 11:25N 35°31' E 139°50'0 0.0
2017-Oct-05 10:58N 35°31' E 139°50'0 0.0
2017-Oct-05 10:28N 35°31' E 139°50'0 0.0
2017-Oct-05 09:55N 35°31' E 139°50'0 0.0
2017-Oct-05 09:22N 35°31' E 139°50'0 0.0
2017-Oct-05 08:58N 35°31' E 139°50'0 0.0
2017-Oct-05 08:25N 35°31' E 139°50'0 0.0
2017-Oct-05 07:58N 35°31' E 139°50'0 0.0
2017-Oct-05 07:28N 35°31' E 139°50'0 0.0
2017-Oct-05 04:52N 35°31' E 139°50'0 0.0
2017-Oct-05 04:13N 35°31' E 139°50'0 0.0
2017-Oct-05 03:58N 35°31' E 139°50'0 0.0
2017-Oct-05 03:13N 35°31' E 139°50'0 0.0
2017-Oct-05 02:58N 35°31' E 139°50'0 0.0
2017-Oct-05 02:25N 35°31' E 139°50'0 0.0
2017-Oct-04 21:53N 35°31' E 139°50'3 7.9
2017-Oct-04 21:30N 35°28' E 139°48'5 9.7
2017-Oct-04 21:00N 35°24' E 139°46'510.7
2017-Oct-04 20:30N 35°18' E 139°44'510.9
2017-Oct-04 20:00N 35°14' E 139°47'611.3
2017-Oct-04 19:30N 35°08' E 139°44'612.3
2017-Oct-04 19:00N 35°03' E 139°40'612.0
2017-Oct-04 18:28N 34°59' E 139°34'  
Track history (hours):
 
Tides and Currents Weather Stations Pressure Air Temp Water Temp Dewpoint Dewpoint Depression Visibility Wind Speed Wind Dir Waves Ship Positions

Taihei Maru

Last reported at 2017-Oct-12 04:59 UTC. Time now 2017-Oct-20 05:25 UTC.
Position N 34°37' E 134°57'.
Warning: this ship's position is 8 days out of date.

Length 62 m; draft 4.3 m.

Type: Ship. MMSI: 431301369.

Date/timePositionNaut miles runAvg speedWind from/ knotsBaromVisibWave heightAir tempDewpointWater temp
2017-Oct-12 04:59N 34°37' E 134°57'713.3
2017-Oct-12 04:29N 34°36' E 135°06'612.1
2017-Oct-12 04:00N 34°36' E 135°12'612.5
2017-Oct-12 03:30N 34°34' E 135°20'5 0.9
2017-Oct-11 22:20N 34°32' E 135°25'1 2.5
2017-Oct-11 22:00N 34°33' E 135°25'2 1.1
2017-Oct-11 20:40N 34°34' E 135°23'0 0.3
2017-Oct-11 20:30N 34°34' E 135°23'510.1
2017-Oct-11 20:00N 34°34' E 135°17'612.4
2017-Oct-11 19:30N 34°34' E 135°10'713.3
2017-Oct-11 19:00N 34°36' E 135°02'  
2017-Oct-07 09:38N 34°59' E 139°24'211.3
2017-Oct-07 09:27N 35°00' E 139°26'511.1
2017-Oct-07 09:00N 35°03' E 139°32'611.4
2017-Oct-07 08:30N 35°05' E 139°38'611.4
2017-Oct-07 08:00N 35°08' E 139°43'611.7
2017-Oct-07 07:30N 35°14' E 139°46'611.1
2017-Oct-07 07:00N 35°19' E 139°43'5 9.6
2017-Oct-07 06:30N 35°24' E 139°44'0 0.6
2017-Oct-07 06:00N 35°24' E 139°44'0 0.0
2017-Oct-07 05:28N 35°24' E 139°44'0 0.0
2017-Oct-07 04:55N 35°24' E 139°44'0 0.0
2017-Oct-07 04:19N 35°24' E 139°44'0 0.0
2017-Oct-07 03:58N 35°24' E 139°44'0 0.0
2017-Oct-07 03:28N 35°24' E 139°44'0 0.0
2017-Oct-07 02:58N 35°24' E 139°44'0 0.0
2017-Oct-07 02:28N 35°24' E 139°44'0 0.0
2017-Oct-07 01:58N 35°24' E 139°44'0 0.0
2017-Oct-07 01:28N 35°24' E 139°44'0 0.1
2017-Oct-07 00:58N 35°24' E 139°44'0 0.1
2017-Oct-07 00:25N 35°24' E 139°44'0 0.1
2017-Oct-06 23:58N 35°24' E 139°44'0 0.1
2017-Oct-06 23:28N 35°24' E 139°44'0 0.1
2017-Oct-06 22:52N 35°24' E 139°44'0 0.1
2017-Oct-06 22:28N 35°24' E 139°44'0 0.0
2017-Oct-06 21:58N 35°24' E 139°44'0 0.1
2017-Oct-06 21:28N 35°24' E 139°44'0 0.0
2017-Oct-06 20:58N 35°24' E 139°44'0 0.0
2017-Oct-06 20:28N 35°24' E 139°44'0 0.0
2017-Oct-06 19:58N 35°24' E 139°44'0 0.1
2017-Oct-06 19:28N 35°24' E 139°44'0 0.1
2017-Oct-06 18:58N 35°24' E 139°44'0 0.1
2017-Oct-06 18:28N 35°24' E 139°44'0 0.0
2017-Oct-06 17:58N 35°24' E 139°44'0 0.0
2017-Oct-06 17:25N 35°24' E 139°44'0 0.0
2017-Oct-06 16:58N 35°24' E 139°44'0 0.0
2017-Oct-06 16:25N 35°24' E 139°44'0 0.0
2017-Oct-06 15:58N 35°24' E 139°44'0 1.0
2017-Oct-06 15:30N 35°24' E 139°44'611.2
2017-Oct-06 15:00N 35°29' E 139°47'2 4.8
2017-Oct-06 14:30N 35°31' E 139°46'0 0.0
2017-Oct-06 13:46N 35°31' E 139°46'0 0.0
2017-Oct-06 13:28N 35°31' E 139°46'0 0.1
2017-Oct-06 12:52N 35°31' E 139°46'0 0.1
2017-Oct-06 12:28N 35°31' E 139°46'0 0.0
2017-Oct-06 11:58N 35°31' E 139°46'0 0.0
2017-Oct-06 11:28N 35°31' E 139°46'0 0.0
2017-Oct-06 10:58N 35°31' E 139°46'0 0.0
2017-Oct-06 10:28N 35°31' E 139°46'0 0.1
2017-Oct-06 09:58N 35°31' E 139°46'0 0.1
2017-Oct-06 09:28N 35°31' E 139°46'0 0.0
2017-Oct-06 08:58N 35°31' E 139°46'0 0.0
2017-Oct-06 08:28N 35°31' E 139°46'0 0.0
2017-Oct-06 07:58N 35°31' E 139°46'0 0.0
2017-Oct-06 07:28N 35°31' E 139°46'0 0.0
2017-Oct-06 06:58N 35°31' E 139°46'0 0.0
2017-Oct-06 06:28N 35°31' E 139°46'0 0.1
2017-Oct-06 05:58N 35°31' E 139°46'0 0.1
2017-Oct-06 05:28N 35°31' E 139°46'0 0.0
2017-Oct-06 04:58N 35°31' E 139°46'0 0.0
2017-Oct-06 04:28N 35°31' E 139°46'0 0.0
2017-Oct-06 03:58N 35°31' E 139°46'0 0.0
2017-Oct-06 03:25N 35°31' E 139°46'0 0.1
2017-Oct-06 02:58N 35°31' E 139°46'0 0.1
2017-Oct-06 02:28N 35°31' E 139°46'0 0.0
2017-Oct-06 01:58N 35°31' E 139°46'0 0.0
2017-Oct-06 01:28N 35°31' E 139°46'0 0.0
2017-Oct-06 00:58N 35°31' E 139°46'0 0.0
2017-Oct-06 00:22N 35°31' E 139°46'0 0.0
2017-Oct-05 23:58N 35°31' E 139°46'2 3.1
2017-Oct-05 23:27N 35°30' E 139°48'2 5.2
2017-Oct-05 23:01N 35°31' E 139°50'0 0.1
2017-Oct-05 22:25N 35°31' E 139°50'0 0.0
2017-Oct-05 21:55N 35°31' E 139°50'0 0.0
2017-Oct-05 21:28N 35°31' E 139°50'0 0.0
2017-Oct-05 20:58N 35°31' E 139°50'0 0.0
2017-Oct-05 20:22N 35°31' E 139°50'0 0.0
2017-Oct-05 19:55N 35°31' E 139°50'0 0.0
2017-Oct-05 19:28N 35°31' E 139°50'0 0.0
2017-Oct-05 18:58N 35°31' E 139°50'0 0.0
2017-Oct-05 17:58N 35°31' E 139°50'0 0.0
2017-Oct-05 17:13N 35°31' E 139°50'0 0.1
2017-Oct-05 16:58N 35°31' E 139°50'0 0.0
2017-Oct-05 15:10N 35°31' E 139°50'0 0.0
2017-Oct-05 14:40N 35°31' E 139°50'0 0.0
2017-Oct-05 14:19N 35°31' E 139°50'0 0.0
2017-Oct-05 13:58N 35°31' E 139°50'0 0.0
2017-Oct-05 13:28N 35°31' E 139°50'0 0.0
2017-Oct-05 12:58N 35°31' E 139°50'0 0.0
2017-Oct-05 12:28N 35°31' E 139°50'0 0.0
2017-Oct-05 11:55N 35°31' E 139°50'0 0.0
2017-Oct-05 11:25N 35°31' E 139°50'0 0.0
2017-Oct-05 10:58N 35°31' E 139°50'0 0.0
2017-Oct-05 10:28N 35°31' E 139°50'0 0.0
2017-Oct-05 09:55N 35°31' E 139°50'0 0.0
2017-Oct-05 09:22N 35°31' E 139°50'0 0.0
2017-Oct-05 08:58N 35°31' E 139°50'0 0.0
2017-Oct-05 08:25N 35°31' E 139°50'0 0.0
2017-Oct-05 07:58N 35°31' E 139°50'0 0.0
2017-Oct-05 07:28N 35°31' E 139°50'0 0.0
2017-Oct-05 04:52N 35°31' E 139°50'0 0.0
2017-Oct-05 04:13N 35°31' E 139°50'0 0.0
2017-Oct-05 03:58N 35°31' E 139°50'0 0.0
2017-Oct-05 03:13N 35°31' E 139°50'0 0.0
2017-Oct-05 02:58N 35°31' E 139°50'0 0.0
2017-Oct-05 02:25N 35°31' E 139°50'0 0.0
2017-Oct-04 21:53N 35°31' E 139°50'3 7.9
2017-Oct-04 21:30N 35°28' E 139°48'5 9.7
2017-Oct-04 21:00N 35°24' E 139°46'510.7
2017-Oct-04 20:30N 35°18' E 139°44'510.9
2017-Oct-04 20:00N 35°14' E 139°47'611.3
2017-Oct-04 19:30N 35°08' E 139°44'612.3
2017-Oct-04 19:00N 35°03' E 139°40'612.0
2017-Oct-04 18:28N 34°59' E 139°34'  

Dump ship's entire track history